createdAt,value
2023-03-17T00:00:56.731Z,40.35
2023-03-17T00:06:00.443Z,42.78
2023-03-17T00:11:03.600Z,45.25
2023-03-17T00:16:10.461Z,47.45
2023-03-17T00:21:17.161Z,45.90
2023-03-17T00:26:20.620Z,40.83
2023-03-17T00:31:27.702Z,50.80
2023-03-17T00:36:33.752Z,42.90
2023-03-17T00:41:38.864Z,45.00
2023-03-17T00:46:42.358Z,49.10
2023-03-17T00:51:46.243Z,45.15
2023-03-17T00:56:51.464Z,44.30
2023-03-17T01:01:54.784Z,45.80
2023-03-17T01:12:17.111Z,44.95
2023-03-17T01:17:19.908Z,48.30
2023-03-17T01:22:22.476Z,45.25
2023-03-17T01:27:25.746Z,46.65
2023-03-17T01:32:28.725Z,46.03
2023-03-17T01:37:31.684Z,44.13
2023-03-17T01:42:34.504Z,43.28
2023-03-17T01:47:37.377Z,44.67
2023-03-17T01:52:40.811Z,42.38
2023-03-17T01:57:47.231Z,43.50
2023-03-17T02:02:56.805Z,43.60
2023-03-17T02:08:00.612Z,43.50
2023-03-17T02:13:06.076Z,40.53
2023-03-17T02:18:10.341Z,40.60
2023-03-17T02:23:13.309Z,41.08
2023-03-17T02:28:17.434Z,41.80
2023-03-17T02:33:20.237Z,42.63
2023-03-17T02:38:22.878Z,40.40
2023-03-17T02:43:26.884Z,38.58
2023-03-17T02:48:33.394Z,40.88
2023-03-17T02:53:35.939Z,37.78
2023-03-17T02:58:38.907Z,38.67
2023-03-17T03:03:41.755Z,40.00
2023-03-17T03:08:44.721Z,39.22
2023-03-17T03:13:47.438Z,36.60
2023-03-17T03:18:50.084Z,40.55
2023-03-17T03:23:52.917Z,41.75
2023-03-17T03:28:57.695Z,39.80
2023-03-17T03:34:00.540Z,37.60
2023-03-17T03:39:03.487Z,36.92
2023-03-17T03:44:06.700Z,36.38
2023-03-17T03:49:09.624Z,36.10
2023-03-17T03:54:12.298Z,36.22
2023-03-17T03:59:15.540Z,35.10
2023-03-17T04:04:18.389Z,32.00
2023-03-17T04:09:21.325Z,32.10
2023-03-17T04:14:24.181Z,33.85
2023-03-17T04:19:27.780Z,33.15
2023-03-17T04:24:30.287Z,36.22
2023-03-17T04:29:32.866Z,32.10
2023-03-17T04:34:35.448Z,34.05
2023-03-17T04:39:38.486Z,35.83
2023-03-17T04:44:41.570Z,29.98
2023-03-17T04:49:44.278Z,31.40
2023-03-17T04:54:47.200Z,28.23
2023-03-17T04:59:49.837Z,29.42
2023-03-17T05:04:52.795Z,33.00
2023-03-17T05:09:55.940Z,31.10
2023-03-17T05:14:58.920Z,33.45
2023-03-17T05:20:01.643Z,26.00
2023-03-17T05:25:06.997Z,33.22
2023-03-17T05:30:09.994Z,29.02
2023-03-17T05:35:13.076Z,32.22
2023-03-17T05:40:15.763Z,25.67
2023-03-17T05:45:18.966Z,30.02
2023-03-17T05:50:21.976Z,27.00
2023-03-17T05:55:24.679Z,29.98
2023-03-17T06:00:29.568Z,28.38
2023-03-17T06:05:32.827Z,29.02
2023-03-17T06:10:35.440Z,30.65
2023-03-17T06:15:38.298Z,25.70
2023-03-17T06:20:46.216Z,27.30
2023-03-17T06:25:49.086Z,28.08
2023-03-17T06:31:12.316Z,26.35
2023-03-17T06:36:21.993Z,30.33
2023-03-17T06:41:25.192Z,31.35
2023-03-17T06:46:28.366Z,31.20
2023-03-17T06:51:37.631Z,25.50
2023-03-17T06:56:40.397Z,26.10
2023-03-17T07:01:49.716Z,27.38
2023-03-17T07:06:52.772Z,26.67
2023-03-17T07:11:55.486Z,25.33
2023-03-17T07:16:58.549Z,26.08
2023-03-17T07:29:44.656Z,23.52
2023-03-17T07:35:22.718Z,24.73
2023-03-17T07:41:28.737Z,23.85
2023-03-17T07:46:31.837Z,25.60
2023-03-17T07:51:35.602Z,24.88
2023-03-17T08:02:23.022Z,24.98
2023-03-17T08:07:26.130Z,22.23
2023-03-17T08:12:29.518Z,24.50
2023-03-17T08:25:29.940Z,21.75
2023-03-17T08:30:33.926Z,22.48
2023-03-17T08:35:42.426Z,22.42
2023-03-17T08:40:45.405Z,20.80
2023-03-17T08:45:48.491Z,22.33
2023-03-17T08:50:51.089Z,18.75
2023-03-17T08:55:56.621Z,20.67
2023-03-17T09:01:00.824Z,18.25
2023-03-17T09:06:07.123Z,21.38
2023-03-17T09:11:11.843Z,21.00
2023-03-17T09:16:16.592Z,21.80
2023-03-17T09:21:24.714Z,22.10
2023-03-17T09:26:27.482Z,19.83
2023-03-17T09:31:30.341Z,18.42
2023-03-17T09:36:36.020Z,18.30
2023-03-17T09:41:51.987Z,19.20
2023-03-17T09:47:00.576Z,22.00
2023-03-17T09:52:04.014Z,21.98
2023-03-17T09:57:19.560Z,18.48
2023-03-17T10:02:24.215Z,18.20
2023-03-17T10:07:41.410Z,21.00
2023-03-17T10:12:48.333Z,17.80
2023-03-17T10:17:52.750Z,20.58
2023-03-17T10:22:58.486Z,17.38
2023-03-17T10:28:11.825Z,19.38
2023-03-17T10:33:14.517Z,17.55
2023-03-17T10:38:17.268Z,17.60
2023-03-17T10:43:21.315Z,18.65
2023-03-17T10:48:24.146Z,16.98
2023-03-17T10:53:30.744Z,18.13
2023-03-17T10:58:37.367Z,18.25
2023-03-17T11:03:40.763Z,18.10
2023-03-17T11:08:54.067Z,17.63
2023-03-17T11:14:03.728Z,17.10
2023-03-17T11:19:08.263Z,16.60
2023-03-17T11:24:14.650Z,19.02
2023-03-17T11:29:17.262Z,17.10
2023-03-17T11:34:25.973Z,16.08
2023-03-17T11:39:32.711Z,17.33
2023-03-17T11:44:54.474Z,16.45
2023-03-17T11:50:07.396Z,16.45
2023-03-17T11:55:20.570Z,18.42
2023-03-17T12:00:26.752Z,20.92
2023-03-17T12:05:32.948Z,18.15
2023-03-17T12:10:46.871Z,19.20
2023-03-17T12:15:49.532Z,18.40
2023-03-17T12:20:58.839Z,18.50
2023-03-17T12:26:16.924Z,17.23
2023-03-17T12:31:39.680Z,18.13
2023-03-17T12:36:43.044Z,16.08
2023-03-17T12:41:49.302Z,16.55
2023-03-17T12:47:01.627Z,16.63
2023-03-17T12:52:10.809Z,17.00
2023-03-17T12:57:15.914Z,17.33
2023-03-17T13:02:27.837Z,17.45
2023-03-17T13:07:38.191Z,17.23
2023-03-17T13:12:41.388Z,16.98
2023-03-17T13:17:44.048Z,16.55
2023-03-17T13:23:25.595Z,18.33
2023-03-17T13:28:41.691Z,37.22
2023-03-17T13:33:46.407Z,38.75
2023-03-17T13:39:18.768Z,34.83
2023-03-17T13:44:31.337Z,33.78
2023-03-17T13:49:37.030Z,34.90
2023-03-17T13:54:47.627Z,33.70
2023-03-17T13:59:56.790Z,32.75
2023-03-17T14:05:01.172Z,33.22
2023-03-17T14:10:05.818Z,30.52
2023-03-17T14:15:17.761Z,30.67
2023-03-17T14:20:22.742Z,27.60
2023-03-17T14:25:27.042Z,27.08
2023-03-17T14:30:31.004Z,26.83
2023-03-17T14:35:35.647Z,30.50
2023-03-17T14:40:38.307Z,25.17
2023-03-17T14:45:54.384Z,28.08
2023-03-17T14:51:00.144Z,26.52
2023-03-17T14:56:04.678Z,24.95
2023-03-17T15:01:28.475Z,26.15
2023-03-17T15:06:31.700Z,23.38
2023-03-17T15:11:39.567Z,25.45
2023-03-17T15:16:46.067Z,25.42
2023-03-17T15:21:49.264Z,25.52
2023-03-17T15:26:58.823Z,27.50
2023-03-17T15:32:21.748Z,24.35
2023-03-17T15:37:25.926Z,21.73
2023-03-17T15:52:33.676Z,22.70
2023-03-17T15:57:36.866Z,26.92
2023-03-17T16:02:39.645Z,26.65
2023-03-17T16:07:43.168Z,24.33
2023-03-17T16:12:46.214Z,25.90
2023-03-17T16:17:50.197Z,24.42
2023-03-17T16:22:54.190Z,24.50
2023-03-17T16:27:58.029Z,23.40
2023-03-17T16:33:02.813Z,26.25
2023-03-17T16:38:07.178Z,22.58
2023-03-17T16:43:25.068Z,24.60
2023-03-17T16:48:29.191Z,23.20
2023-03-17T16:53:32.145Z,24.67
2023-03-17T16:58:37.094Z,22.10
2023-03-17T17:03:40.135Z,21.92
2023-03-17T17:08:44.238Z,20.67
2023-03-17T17:18:49.893Z,22.38
2023-03-17T17:23:53.412Z,21.70
2023-03-17T17:28:56.185Z,24.48
2023-03-17T17:33:58.962Z,21.38
2023-03-17T17:39:01.921Z,22.27
2023-03-17T17:44:05.922Z,23.70
2023-03-17T17:49:08.934Z,22.20
2023-03-17T17:54:12.539Z,23.05
2023-03-17T17:59:15.451Z,23.15
2023-03-17T18:04:18.474Z,22.38
2023-03-17T18:09:22.087Z,21.92
2023-03-17T18:14:25.100Z,21.13
2023-03-17T18:19:27.782Z,19.35
2023-03-17T18:24:30.543Z,20.40
2023-03-17T18:29:33.033Z,25.85
2023-03-17T18:34:39.505Z,25.40
2023-03-17T18:39:42.957Z,27.20
2023-03-17T18:44:45.813Z,26.00
2023-03-17T18:49:48.503Z,25.70
2023-03-17T18:54:51.275Z,22.65
2023-03-17T18:59:54.306Z,20.35
2023-03-17T19:04:57.250Z,20.38
2023-03-17T19:10:00.906Z,20.77
2023-03-17T19:15:04.637Z,20.77
2023-03-17T19:20:07.911Z,20.73
2023-03-17T19:25:10.991Z,18.92
2023-03-17T19:30:15.106Z,17.75
2023-03-17T19:35:17.784Z,21.60
2023-03-17T19:40:20.426Z,19.27
2023-03-17T19:45:23.276Z,18.60
2023-03-17T19:50:26.743Z,17.77
2023-03-17T19:55:29.916Z,18.83
2023-03-17T20:00:34.245Z,20.13
2023-03-17T20:05:36.941Z,21.35
2023-03-17T20:10:39.692Z,19.08
2023-03-17T20:15:42.462Z,19.50
2023-03-17T20:20:49.774Z,18.30
2023-03-17T20:25:53.565Z,19.58
2023-03-17T20:30:59.000Z,17.75
2023-03-17T20:36:03.611Z,18.98
2023-03-17T20:41:11.032Z,16.27
2023-03-17T20:46:21.485Z,17.75
2023-03-17T20:56:28.747Z,21.40
2023-03-17T21:01:33.586Z,20.10
2023-03-17T21:06:37.185Z,21.17
2023-03-17T21:11:40.239Z,17.55
2023-03-17T21:16:43.106Z,19.70
2023-03-17T21:21:46.046Z,18.58
2023-03-17T21:26:48.982Z,19.55
2023-03-17T21:31:51.923Z,16.88
2023-03-17T21:36:55.028Z,17.90
2023-03-17T21:41:57.955Z,16.05
2023-03-17T21:47:03.219Z,16.83
2023-03-17T21:52:05.914Z,16.90
2023-03-17T21:57:08.921Z,17.60
2023-03-17T22:02:12.819Z,16.27
2023-03-17T22:07:16.984Z,15.10
2023-03-17T22:12:21.257Z,12.63
2023-03-17T22:22:26.676Z,16.38
2023-03-17T22:27:29.570Z,15.80
2023-03-17T22:32:32.517Z,14.57
2023-03-17T22:37:35.334Z,15.50
2023-03-17T22:42:38.185Z,13.60
2023-03-17T22:47:41.385Z,11.80
2023-03-17T22:52:44.414Z,11.50
2023-03-17T22:57:47.656Z,14.45
2023-03-17T23:02:50.279Z,12.93
2023-03-17T23:07:52.825Z,16.08
2023-03-17T23:12:55.486Z,15.98
2023-03-17T23:17:58.162Z,14.05
2023-03-17T23:23:01.168Z,14.30
2023-03-17T23:28:04.100Z,17.48
2023-03-17T23:33:07.889Z,18.95
2023-03-17T23:38:10.594Z,16.13
2023-03-17T23:43:13.808Z,18.48
2023-03-17T23:48:16.822Z,14.70
2023-03-17T23:53:19.558Z,16.02
2023-03-17T23:58:22.836Z,13.80
